createdAt,value
2022-12-22T00:00:27.908Z,958.49
2022-12-22T00:01:27.899Z,958.5
2022-12-22T00:02:29.379Z,958.48
2022-12-22T00:03:27.909Z,958.5
2022-12-22T00:04:27.791Z,958.47
2022-12-22T00:05:27.953Z,958.46
2022-12-22T00:07:27.890Z,958.48
2022-12-22T00:08:27.962Z,958.49
2022-12-22T00:09:27.929Z,958.47
2022-12-22T00:11:27.950Z,958.46
2022-12-22T00:12:27.944Z,958.44
2022-12-22T00:13:27.892Z,958.43
2022-12-22T00:14:27.840Z,958.42
2022-12-22T00:15:27.938Z,958.37
2022-12-22T00:16:27.928Z,958.43
2022-12-22T00:17:27.848Z,958.4
2022-12-22T00:19:27.902Z,958.39
2022-12-22T00:21:27.953Z,958.4
2022-12-22T00:23:27.952Z,958.37
2022-12-22T00:25:28.058Z,958.38
2022-12-22T00:28:27.925Z,958.39
2022-12-22T00:30:28.014Z,958.37
2022-12-22T00:31:27.873Z,958.39
2022-12-22T00:32:27.873Z,958.42
2022-12-22T00:33:27.952Z,958.4
2022-12-22T00:34:32.408Z,958.44
2022-12-22T00:35:28.097Z,958.42
2022-12-22T00:36:27.950Z,958.39
2022-12-22T00:37:28.059Z,958.44
2022-12-22T00:38:27.995Z,958.39
2022-12-22T00:39:27.976Z,958.41
2022-12-22T00:41:28.002Z,958.42
2022-12-22T00:42:27.888Z,958.41
2022-12-22T00:43:27.925Z,958.38
2022-12-22T00:44:27.995Z,958.37
2022-12-22T00:45:28.038Z,958.33
2022-12-22T00:46:29.394Z,958.36
2022-12-22T00:47:28.002Z,958.35
2022-12-22T00:48:27.979Z,958.32
2022-12-22T00:49:28.049Z,958.39
2022-12-22T00:50:28.024Z,958.34
2022-12-22T00:51:27.979Z,958.29
2022-12-22T00:52:27.907Z,958.31
2022-12-22T00:53:28.013Z,958.33
2022-12-22T00:54:28.052Z,958.3
2022-12-22T00:55:28.051Z,958.28
2022-12-22T00:56:28.029Z,958.31
2022-12-22T00:57:27.992Z,958.25
2022-12-22T00:58:28.059Z,958.24
2022-12-22T00:59:28.026Z,958.25
2022-12-22T01:00:27.998Z,958.2
2022-12-22T01:03:28.135Z,958.14
2022-12-22T01:04:29.409Z,958.19
2022-12-22T01:05:27.940Z,958.15
2022-12-22T01:06:27.958Z,958.17
2022-12-22T01:07:27.952Z,958.2
2022-12-22T01:09:28.009Z,958.17
2022-12-22T01:10:28.067Z,958.25
2022-12-22T01:11:28.048Z,958.26
2022-12-22T01:13:28.090Z,958.31
2022-12-22T01:14:28.063Z,958.33
2022-12-22T01:15:28.118Z,958.4
2022-12-22T01:16:28.146Z,958.39
2022-12-22T01:17:28.074Z,958.38
2022-12-22T01:18:28.148Z,958.43
2022-12-22T01:20:28.065Z,958.44
2022-12-22T01:21:27.983Z,958.43
2022-12-22T01:22:28.090Z,958.45
2022-12-22T01:23:28.013Z,958.46
2022-12-22T01:24:28.118Z,958.5
2022-12-22T01:25:28.093Z,958.48
2022-12-22T01:26:28.058Z,958.52
2022-12-22T01:27:28.026Z,958.55
2022-12-22T01:28:28.005Z,958.53
2022-12-22T01:30:28.168Z,958.55
2022-12-22T01:31:28.192Z,958.48
2022-12-22T01:32:27.994Z,958.52
2022-12-22T01:33:29.069Z,958.49
2022-12-22T01:34:28.125Z,958.53
2022-12-22T01:36:28.142Z,958.51
2022-12-22T01:37:28.125Z,958.48
2022-12-22T01:38:28.182Z,958.5
2022-12-22T01:39:28.009Z,958.48
2022-12-22T01:41:28.235Z,958.5
2022-12-22T01:42:28.048Z,958.51
2022-12-22T01:43:28.035Z,958.45
2022-12-22T01:44:28.184Z,958.43
2022-12-22T01:45:28.051Z,958.46
2022-12-22T01:46:28.176Z,958.45
2022-12-22T01:47:28.058Z,958.47
2022-12-22T01:48:28.041Z,958.45
2022-12-22T01:49:28.049Z,958.44
2022-12-22T01:50:28.201Z,958.45
2022-12-22T01:51:28.170Z,958.5
2022-12-22T01:52:28.136Z,958.48
2022-12-22T01:53:28.203Z,958.49
2022-12-22T01:54:28.180Z,958.48
2022-12-22T01:55:28.134Z,958.43
2022-12-22T01:56:28.204Z,958.45
2022-12-22T01:57:28.190Z,958.42
2022-12-22T01:58:28.140Z,958.43
2022-12-22T01:59:28.124Z,958.47
2022-12-22T02:00:28.181Z,958.45
2022-12-22T02:02:30.263Z,958.47
2022-12-22T02:04:28.182Z,958.5
2022-12-22T02:05:28.217Z,958.52
2022-12-22T02:06:28.185Z,958.47
2022-12-22T02:07:28.179Z,958.49
2022-12-22T02:08:29.243Z,958.47
2022-12-22T02:09:28.197Z,958.49
2022-12-22T02:10:28.156Z,958.5
2022-12-22T02:11:28.119Z,958.47
2022-12-22T02:12:28.101Z,958.48
2022-12-22T02:13:28.155Z,958.51
2022-12-22T02:14:30.224Z,958.52
2022-12-22T02:15:28.204Z,958.48
2022-12-22T02:16:29.390Z,958.49
2022-12-22T02:17:28.233Z,958.52
2022-12-22T02:18:28.100Z,958.56
2022-12-22T02:19:28.168Z,958.54
2022-12-22T02:20:28.236Z,958.51
2022-12-22T02:21:28.214Z,958.54
2022-12-22T02:22:28.130Z,958.5
2022-12-22T02:23:28.128Z,958.47
2022-12-22T02:24:28.215Z,958.44
2022-12-22T02:25:28.290Z,958.4
2022-12-22T02:26:28.251Z,958.38
2022-12-22T02:27:28.210Z,958.37
2022-12-22T02:28:28.182Z,958.33
2022-12-22T02:29:28.263Z,958.4
2022-12-22T02:30:28.228Z,958.33
2022-12-22T02:31:28.388Z,958.4
2022-12-22T02:32:28.260Z,958.43
2022-12-22T02:33:28.248Z,958.44
2022-12-22T02:35:28.276Z,958.47
2022-12-22T02:36:28.159Z,958.44
2022-12-22T02:37:28.284Z,958.38
2022-12-22T02:38:28.280Z,958.37
2022-12-22T02:39:28.225Z,958.34
2022-12-22T02:40:28.297Z,958.33
2022-12-22T02:41:28.163Z,958.29
2022-12-22T02:42:28.240Z,958.28
2022-12-22T02:43:28.168Z,958.24
2022-12-22T02:45:28.232Z,958.22
2022-12-22T02:46:29.474Z,958.18
2022-12-22T02:47:28.304Z,958.14
2022-12-22T02:48:28.244Z,958.12
2022-12-22T02:49:28.307Z,958.1
2022-12-22T02:50:28.278Z,958.07
2022-12-22T02:51:28.200Z,958.13
2022-12-22T02:52:28.200Z,958.11
2022-12-22T02:53:28.191Z,958.13
2022-12-22T02:54:28.351Z,958.12
2022-12-22T02:55:28.199Z,958.13
2022-12-22T02:56:28.210Z,958.07
2022-12-22T02:57:32.480Z,958.08
2022-12-22T02:58:28.319Z,958.1
2022-12-22T02:59:28.282Z,958.13
2022-12-22T03:00:28.383Z,958.1
2022-12-22T03:01:28.559Z,958.07
2022-12-22T03:03:28.367Z,958.06
2022-12-22T03:04:28.327Z,958.07
2022-12-22T03:05:28.221Z,958.09
2022-12-22T03:06:28.225Z,958.03
2022-12-22T03:08:28.336Z,957.98
2022-12-22T03:09:28.226Z,957.93
2022-12-22T03:10:28.337Z,957.9
2022-12-22T03:11:28.308Z,957.89
2022-12-22T03:13:28.395Z,957.84
2022-12-22T03:14:28.323Z,957.88
2022-12-22T03:15:28.371Z,957.83
2022-12-22T03:16:28.434Z,957.82
2022-12-22T03:17:28.312Z,957.78
2022-12-22T03:18:28.394Z,957.76
2022-12-22T03:19:28.360Z,957.78
2022-12-22T03:20:28.313Z,957.74
2022-12-22T03:21:28.393Z,957.72
2022-12-22T03:22:28.351Z,957.68
2022-12-22T03:23:28.323Z,957.7
2022-12-22T03:24:29.630Z,957.71
2022-12-22T03:25:28.266Z,957.66
2022-12-22T03:26:28.431Z,957.68
2022-12-22T03:27:28.297Z,957.67
2022-12-22T03:28:28.361Z,957.66
2022-12-22T03:29:28.327Z,957.67
2022-12-22T03:31:28.354Z,957.69
2022-12-22T03:32:28.431Z,957.71
2022-12-22T03:34:28.374Z,957.68
2022-12-22T03:35:28.287Z,957.66
2022-12-22T03:37:28.451Z,957.69
2022-12-22T03:38:29.705Z,957.66
2022-12-22T03:39:28.427Z,957.67
2022-12-22T03:40:28.374Z,957.62
2022-12-22T03:41:28.307Z,957.63
2022-12-22T03:42:28.418Z,957.56
2022-12-22T03:43:28.308Z,957.52
2022-12-22T03:44:28.321Z,957.49
2022-12-22T03:45:28.424Z,957.53
2022-12-22T03:46:28.399Z,957.54
2022-12-22T03:47:28.352Z,957.57
2022-12-22T03:48:28.426Z,957.55
2022-12-22T03:49:28.392Z,957.56
2022-12-22T03:50:28.459Z,957.61
2022-12-22T03:51:28.320Z,957.59
2022-12-22T03:52:28.327Z,957.6
2022-12-22T03:53:28.336Z,957.62
2022-12-22T03:54:28.437Z,957.58
2022-12-22T03:55:28.337Z,957.54
2022-12-22T03:56:28.367Z,957.55
2022-12-22T03:57:28.349Z,957.56
2022-12-22T04:00:28.395Z,957.55
2022-12-22T04:01:28.458Z,957.51
2022-12-22T04:02:28.487Z,957.52
2022-12-22T04:03:28.441Z,957.46
2022-12-22T04:04:28.512Z,957.48
2022-12-22T04:05:28.472Z,957.46
2022-12-22T04:07:29.365Z,957.43
2022-12-22T04:08:28.478Z,957.45
2022-12-22T04:09:28.450Z,957.4
2022-12-22T04:10:29.382Z,957.36
2022-12-22T04:11:28.499Z,957.4
2022-12-22T04:12:28.454Z,957.35
2022-12-22T04:13:28.368Z,957.37
2022-12-22T04:14:33.703Z,957.4
2022-12-22T04:15:28.454Z,957.41
2022-12-22T04:16:28.536Z,957.42
2022-12-22T04:17:28.496Z,957.41
2022-12-22T04:18:28.477Z,957.42
2022-12-22T04:19:28.529Z,957.4
2022-12-22T04:20:28.392Z,957.43
2022-12-22T04:22:29.457Z,957.41
2022-12-22T04:23:28.505Z,957.37
2022-12-22T04:24:28.426Z,957.35
2022-12-22T04:25:28.427Z,957.3
2022-12-22T04:26:28.507Z,957.34
2022-12-22T04:27:28.512Z,957.32
2022-12-22T04:28:28.432Z,957.33
2022-12-22T04:29:28.408Z,957.18
2022-12-22T04:30:28.480Z,957.26
2022-12-22T04:32:28.506Z,957.16
2022-12-22T04:33:28.586Z,957.09
2022-12-22T04:34:28.439Z,957.16
2022-12-22T04:35:28.529Z,957.08
2022-12-22T04:36:28.584Z,957.17
2022-12-22T04:38:28.518Z,957.11
2022-12-22T04:39:28.492Z,957.13
2022-12-22T04:41:28.633Z,957.09
2022-12-22T04:42:28.598Z,957.08
2022-12-22T04:43:28.585Z,957.05
2022-12-22T04:46:28.689Z,957.09
2022-12-22T04:47:28.544Z,957.15
2022-12-22T04:48:29.613Z,957.1
2022-12-22T04:49:28.464Z,957.11
2022-12-22T04:50:28.466Z,957.15
2022-12-22T04:51:28.743Z,957.1
2022-12-22T04:52:28.482Z,957.12
2022-12-22T04:53:28.552Z,957.11
2022-12-22T04:55:28.470Z,957.08
2022-12-22T04:57:28.607Z,957.07
2022-12-22T04:58:28.595Z,957.06
2022-12-22T04:59:28.554Z,957.04
2022-12-22T05:00:28.524Z,957.02
2022-12-22T05:01:28.613Z,957
2022-12-22T05:02:28.613Z,957.04
2022-12-22T05:05:28.559Z,957.02
2022-12-22T05:06:28.512Z,957.05
2022-12-22T05:07:28.513Z,957.03
2022-12-22T05:08:29.704Z,957.05
2022-12-22T05:09:28.628Z,957.03
2022-12-22T05:10:28.604Z,957
2022-12-22T05:11:28.558Z,957.01
2022-12-22T05:12:28.518Z,957.03
2022-12-22T05:13:28.600Z,957
2022-12-22T05:14:28.514Z,956.96
2022-12-22T05:16:28.704Z,957.02
2022-12-22T05:17:28.588Z,957.06
2022-12-22T05:19:30.813Z,957.04
2022-12-22T05:20:28.683Z,957.03
2022-12-22T05:21:28.647Z,957.05
2022-12-22T05:22:28.542Z,957.08
2022-12-22T05:23:28.685Z,957.06
2022-12-22T05:24:28.656Z,957.16
2022-12-22T05:25:34.640Z,957.17
2022-12-22T05:26:28.691Z,957.23
2022-12-22T05:28:28.626Z,957.25
2022-12-22T05:29:29.813Z,957.36
2022-12-22T05:30:28.719Z,957.43
2022-12-22T05:31:28.805Z,957.52
2022-12-22T05:32:28.697Z,957.57
2022-12-22T05:33:28.671Z,957.69
2022-12-22T05:34:29.846Z,957.66
2022-12-22T05:35:28.714Z,957.62
2022-12-22T05:37:28.632Z,957.66
2022-12-22T05:39:28.678Z,957.63
2022-12-22T05:40:28.586Z,957.67
2022-12-22T05:41:28.585Z,957.64
2022-12-22T05:42:28.587Z,957.67
2022-12-22T05:43:28.594Z,957.65
2022-12-22T05:44:28.600Z,957.6
2022-12-22T05:45:28.675Z,957.57
2022-12-22T05:46:28.808Z,957.58
2022-12-22T05:47:28.609Z,957.56
2022-12-22T05:48:33.814Z,957.58
2022-12-22T05:49:28.728Z,957.54
2022-12-22T05:50:28.604Z,957.64
2022-12-22T05:51:28.693Z,957.66
2022-12-22T05:52:28.758Z,957.67
2022-12-22T05:53:28.734Z,957.61
2022-12-22T05:55:29.948Z,957.56
2022-12-22T05:56:28.749Z,957.58
2022-12-22T05:57:28.671Z,957.54
2022-12-22T05:58:28.768Z,957.52
2022-12-22T05:59:28.740Z,957.49
2022-12-22T06:00:28.699Z,957.53
2022-12-22T06:01:28.806Z,957.51
2022-12-22T06:02:28.940Z,957.53
2022-12-22T06:03:28.834Z,957.54
2022-12-22T06:04:28.863Z,957.57
2022-12-22T06:05:28.648Z,957.59
2022-12-22T06:06:28.642Z,957.62
2022-12-22T06:07:28.787Z,957.63
2022-12-22T06:08:28.763Z,957.65
2022-12-22T06:09:30.701Z,957.7
2022-12-22T06:10:28.661Z,957.77
2022-12-22T06:11:28.750Z,957.72
2022-12-22T06:12:28.656Z,957.7
2022-12-22T06:13:28.786Z,957.74
2022-12-22T06:14:28.772Z,957.77
2022-12-22T06:15:30.039Z,957.74
2022-12-22T06:16:28.691Z,957.65
2022-12-22T06:17:28.771Z,957.74
2022-12-22T06:19:28.730Z,957.8
2022-12-22T06:20:28.762Z,957.83
2022-12-22T06:21:28.856Z,957.74
2022-12-22T06:22:28.681Z,957.69
2022-12-22T06:23:28.678Z,957.64
2022-12-22T06:24:28.699Z,957.7
2022-12-22T06:26:28.780Z,957.6
2022-12-22T06:27:28.746Z,957.64
2022-12-22T06:28:28.814Z,957.65
2022-12-22T06:29:28.706Z,957.67
2022-12-22T06:30:33.116Z,957.59
2022-12-22T06:31:28.860Z,957.62
2022-12-22T06:32:28.716Z,957.57
2022-12-22T06:33:28.848Z,957.58
2022-12-22T06:34:28.717Z,957.59
2022-12-22T06:35:28.866Z,957.63
2022-12-22T06:36:28.851Z,957.59
2022-12-22T06:37:28.824Z,957.6
2022-12-22T06:38:28.842Z,957.64
2022-12-22T06:39:28.731Z,957.58
2022-12-22T06:40:28.729Z,957.57
2022-12-22T06:41:28.788Z,957.52
2022-12-22T06:42:28.871Z,957.54
2022-12-22T06:43:28.752Z,957.46
2022-12-22T06:45:28.745Z,957.47
2022-12-22T06:46:28.867Z,957.48
2022-12-22T06:47:28.742Z,957.47
2022-12-22T06:48:28.739Z,957.51
2022-12-22T06:49:28.840Z,957.57
2022-12-22T06:50:28.760Z,957.48
2022-12-22T06:51:28.770Z,957.47
2022-12-22T06:52:28.847Z,957.51
2022-12-22T06:53:28.913Z,957.48
2022-12-22T06:54:28.894Z,957.47
2022-12-22T06:55:28.847Z,957.55
2022-12-22T06:56:28.847Z,957.53
2022-12-22T06:57:28.909Z,957.51
2022-12-22T06:58:28.852Z,957.5
2022-12-22T06:59:28.916Z,957.56
2022-12-22T07:00:28.967Z,957.54
2022-12-22T07:01:28.949Z,957.56
2022-12-22T07:02:28.907Z,957.51
2022-12-22T07:03:28.891Z,957.48
2022-12-22T07:04:28.815Z,957.45
2022-12-22T07:05:28.790Z,957.43
2022-12-22T07:06:28.891Z,957.38
2022-12-22T07:07:28.861Z,957.35
2022-12-22T07:08:28.800Z,957.41
2022-12-22T07:09:28.793Z,957.39
2022-12-22T07:10:28.877Z,957.38
2022-12-22T07:11:28.808Z,957.41
2022-12-22T07:12:28.905Z,957.39
2022-12-22T07:13:28.865Z,957.37
2022-12-22T07:14:28.940Z,957.4
2022-12-22T07:15:28.818Z,957.36
2022-12-22T07:16:28.906Z,957.37
2022-12-22T07:17:28.828Z,957.46
2022-12-22T07:18:28.926Z,957.47
2022-12-22T07:19:28.825Z,957.51
2022-12-22T07:20:28.901Z,957.45
2022-12-22T07:21:28.922Z,957.49
2022-12-22T07:22:30.542Z,957.63
2022-12-22T07:23:29.192Z,957.66
2022-12-22T07:24:28.927Z,957.6
2022-12-22T07:25:28.836Z,957.67
2022-12-22T07:27:28.916Z,957.63
2022-12-22T07:28:29.001Z,957.66
2022-12-22T07:29:28.960Z,957.65
2022-12-22T07:30:28.937Z,957.64
2022-12-22T07:31:28.898Z,957.58
2022-12-22T07:32:28.966Z,957.64
2022-12-22T07:33:28.930Z,957.67
2022-12-22T07:34:29.009Z,957.68
2022-12-22T07:35:28.964Z,957.69
2022-12-22T07:36:28.947Z,957.71
2022-12-22T07:38:28.968Z,957.77
2022-12-22T07:39:28.876Z,957.65
2022-12-22T07:40:29.009Z,957.76
2022-12-22T07:41:28.902Z,957.79
2022-12-22T07:42:28.942Z,957.75
2022-12-22T07:44:29.009Z,957.77
2022-12-22T07:45:28.892Z,957.79
2022-12-22T07:46:28.957Z,957.87
2022-12-22T07:47:34.928Z,957.85
2022-12-22T07:48:28.955Z,957.83
2022-12-22T07:49:28.895Z,957.85
2022-12-22T07:50:28.984Z,957.74
2022-12-22T07:51:29.373Z,957.78
2022-12-22T07:52:29.575Z,957.76
2022-12-22T07:53:29.012Z,957.74
2022-12-22T07:55:29.023Z,957.66
2022-12-22T07:56:29.586Z,957.65
2022-12-22T07:57:33.239Z,957.62
2022-12-22T07:58:29.089Z,957.63
2022-12-22T07:59:29.812Z,957.58
2022-12-22T08:00:29.484Z,957.65
2022-12-22T08:01:29.152Z,957.67
2022-12-22T08:02:31.104Z,957.65
2022-12-22T08:04:28.975Z,957.63
2022-12-22T08:05:28.944Z,957.61
2022-12-22T08:06:28.941Z,957.53
2022-12-22T08:07:29.063Z,957.55
2022-12-22T08:08:29.013Z,957.53
2022-12-22T08:09:29.079Z,957.55
2022-12-22T08:10:29.050Z,957.49
2022-12-22T08:11:29.031Z,957.5
2022-12-22T08:12:30.249Z,957.61
2022-12-22T08:13:29.107Z,957.6
2022-12-22T08:14:28.972Z,957.62
2022-12-22T08:15:29.095Z,957.69
2022-12-22T08:16:29.207Z,957.76
2022-12-22T08:17:28.969Z,957.75
2022-12-22T08:18:29.087Z,957.76
2022-12-22T08:19:28.965Z,957.92
2022-12-22T08:20:29.032Z,957.85
2022-12-22T08:21:28.972Z,957.91
2022-12-22T08:22:28.972Z,957.94
2022-12-22T08:24:28.999Z,957.99
2022-12-22T08:25:28.983Z,958.01
2022-12-22T08:26:28.984Z,958.02
2022-12-22T08:28:29.073Z,957.94
2022-12-22T08:29:29.232Z,957.93
2022-12-22T08:30:28.993Z,957.84
2022-12-22T08:32:29.261Z,957.76
2022-12-22T08:33:29.150Z,957.68
2022-12-22T08:34:29.102Z,957.69
2022-12-22T08:35:29.154Z,957.87
2022-12-22T08:36:29.117Z,957.78
2022-12-22T08:37:29.094Z,957.89
2022-12-22T08:38:29.013Z,957.85
2022-12-22T08:39:29.147Z,957.94
2022-12-22T08:41:29.024Z,957.91
2022-12-22T08:42:29.035Z,957.93
2022-12-22T08:43:29.089Z,957.96
2022-12-22T08:44:29.078Z,958
2022-12-22T08:46:29.104Z,958.08
2022-12-22T08:47:29.204Z,958.1
2022-12-22T08:48:29.142Z,958.06
2022-12-22T08:49:29.128Z,958.07
2022-12-22T08:50:29.060Z,958.08
2022-12-22T08:51:29.193Z,958.05
2022-12-22T08:52:29.052Z,958.04
2022-12-22T08:54:02.914Z,957.98
2022-12-22T08:54:29.150Z,958.03
2022-12-22T08:55:30.371Z,958.05
2022-12-22T08:56:29.071Z,958.12
2022-12-22T08:57:29.156Z,958.13
2022-12-22T08:58:29.212Z,958.23
2022-12-22T08:59:29.059Z,958.2
2022-12-22T09:00:29.079Z,958.22
2022-12-22T09:01:29.220Z,958.24
2022-12-22T09:02:29.252Z,958.18
2022-12-22T09:03:29.102Z,958.14
2022-12-22T09:04:29.132Z,958.21
2022-12-22T09:05:29.102Z,958.14
2022-12-22T09:06:33.267Z,958.18
2022-12-22T09:07:29.243Z,958.09
2022-12-22T09:08:29.106Z,958.15
2022-12-22T09:09:29.083Z,958.18
2022-12-22T09:10:29.153Z,958.24
2022-12-22T09:11:29.196Z,958.25
2022-12-22T09:12:29.168Z,958.27
2022-12-22T09:13:29.249Z,958.25
2022-12-22T09:14:29.205Z,958.27
2022-12-22T09:15:29.164Z,958.25
2022-12-22T09:16:29.432Z,958.23
2022-12-22T09:17:29.246Z,958.21
2022-12-22T09:18:29.103Z,958.19
2022-12-22T09:19:29.119Z,958.21
2022-12-22T09:20:29.250Z,958.23
2022-12-22T09:21:29.185Z,958.14
2022-12-22T09:23:29.126Z,958.05
2022-12-22T09:24:30.528Z,958.1
2022-12-22T09:25:29.334Z,958.11
2022-12-22T09:26:29.222Z,958.14
2022-12-22T09:27:29.184Z,958.05
2022-12-22T09:28:29.143Z,958.11
2022-12-22T09:29:29.225Z,958.1
2022-12-22T09:30:29.304Z,958.18
2022-12-22T09:31:29.201Z,958.16
2022-12-22T09:32:29.146Z,958.17
2022-12-22T09:33:30.580Z,958.23
2022-12-22T09:34:29.299Z,958.24
2022-12-22T09:35:29.139Z,958.2
2022-12-22T09:36:29.184Z,958.18
2022-12-22T09:37:29.261Z,958.17
2022-12-22T09:38:29.227Z,958.23
2022-12-22T09:39:29.697Z,958.25
2022-12-22T09:40:29.151Z,958.34
2022-12-22T09:41:29.176Z,958.38
2022-12-22T09:42:30.125Z,958.44
2022-12-22T09:43:29.170Z,958.38
2022-12-22T09:44:29.231Z,958.42
2022-12-22T09:45:29.252Z,958.43
2022-12-22T09:47:29.243Z,958.51
2022-12-22T09:48:29.310Z,958.47
2022-12-22T09:49:29.282Z,958.5
2022-12-22T09:50:29.257Z,958.46
2022-12-22T09:51:29.198Z,958.49
2022-12-22T09:52:29.181Z,958.53
2022-12-22T09:53:30.197Z,958.55
2022-12-22T09:54:29.329Z,958.53
2022-12-22T09:55:29.397Z,958.57
2022-12-22T09:56:29.402Z,958.56
2022-12-22T09:57:29.212Z,958.63
2022-12-22T09:58:29.219Z,958.57
2022-12-22T09:59:29.356Z,958.68
2022-12-22T10:00:29.342Z,958.64
2022-12-22T10:01:29.386Z,958.65
2022-12-22T10:02:29.368Z,958.63
2022-12-22T10:03:29.380Z,958.65
2022-12-22T10:04:29.224Z,958.61
2022-12-22T10:05:29.216Z,958.62
2022-12-22T10:06:29.213Z,958.52
2022-12-22T10:07:29.218Z,958.62
2022-12-22T10:08:29.234Z,958.56
2022-12-22T10:09:49.343Z,958.53
2022-12-22T10:10:29.247Z,958.54
2022-12-22T10:11:29.279Z,958.6
2022-12-22T10:12:29.231Z,958.59
2022-12-22T10:13:29.321Z,958.68
2022-12-22T10:14:29.389Z,958.66
2022-12-22T10:15:29.244Z,958.61
2022-12-22T10:16:29.286Z,958.67
2022-12-22T10:17:29.396Z,958.73
2022-12-22T10:18:29.256Z,958.7
2022-12-22T10:20:29.285Z,958.72
2022-12-22T10:21:29.257Z,958.66
2022-12-22T10:22:29.325Z,958.71
2022-12-22T10:23:29.279Z,958.74
2022-12-22T10:24:29.272Z,958.71
2022-12-22T10:26:31.004Z,958.75
2022-12-22T10:28:29.466Z,958.67
2022-12-22T10:29:29.420Z,958.72
2022-12-22T10:30:29.285Z,958.68
2022-12-22T10:31:29.560Z,958.78
2022-12-22T10:32:29.295Z,958.69
2022-12-22T10:33:29.280Z,958.68
2022-12-22T10:34:29.291Z,958.76
2022-12-22T10:35:29.406Z,958.7
2022-12-22T10:36:29.292Z,958.73
2022-12-22T10:37:29.447Z,958.74
2022-12-22T10:38:29.306Z,958.64
2022-12-22T10:39:29.304Z,958.7
2022-12-22T10:40:29.294Z,958.69
2022-12-22T10:41:29.308Z,958.62
2022-12-22T10:42:29.391Z,958.61
2022-12-22T10:43:29.310Z,958.56
2022-12-22T10:44:29.309Z,958.51
2022-12-22T10:45:29.396Z,958.6
2022-12-22T10:46:30.511Z,958.64
2022-12-22T10:47:29.330Z,958.61
2022-12-22T10:48:29.391Z,958.64
2022-12-22T10:49:29.341Z,958.62
2022-12-22T10:50:29.483Z,958.64
2022-12-22T10:51:29.326Z,958.69
2022-12-22T10:52:30.762Z,958.68
2022-12-22T10:53:29.438Z,958.65
2022-12-22T10:54:29.353Z,958.6
2022-12-22T10:55:29.390Z,958.55
2022-12-22T10:57:29.513Z,958.48
2022-12-22T10:58:29.504Z,958.45
2022-12-22T10:59:29.356Z,958.42
2022-12-22T11:00:29.434Z,958.41
2022-12-22T11:01:29.564Z,958.42
2022-12-22T11:02:29.617Z,958.38
2022-12-22T11:03:29.452Z,958.34
2022-12-22T11:04:29.367Z,958.38
2022-12-22T11:05:29.420Z,958.29
2022-12-22T11:07:29.495Z,958.28
2022-12-22T11:08:29.452Z,958.2
2022-12-22T11:09:34.486Z,958.17
2022-12-22T11:10:29.516Z,958.18
2022-12-22T11:11:29.375Z,958.16
2022-12-22T11:12:29.370Z,958.11
2022-12-22T11:13:29.496Z,958.04
2022-12-22T11:14:29.389Z,958.09
2022-12-22T11:15:29.530Z,958.07
2022-12-22T11:16:29.451Z,958.11
2022-12-22T11:17:29.395Z,958.12
2022-12-22T11:19:29.405Z,958.08
2022-12-22T11:20:29.400Z,958.12
2022-12-22T11:21:29.533Z,958.08
2022-12-22T11:22:29.408Z,958.02
2022-12-22T11:23:29.413Z,958.08
2022-12-22T11:24:29.548Z,958
2022-12-22T11:25:29.407Z,957.99
2022-12-22T11:26:29.606Z,957.98
2022-12-22T11:27:29.416Z,957.99
2022-12-22T11:28:29.436Z,958.01
2022-12-22T11:29:29.473Z,958.07
2022-12-22T11:30:29.452Z,958.1
2022-12-22T11:31:29.498Z,958.12
2022-12-22T11:32:29.483Z,958.06
2022-12-22T11:33:30.734Z,958.07
2022-12-22T11:34:29.522Z,958.13
2022-12-22T11:35:29.506Z,958.04
2022-12-22T11:36:29.441Z,958.08
2022-12-22T11:37:29.526Z,958.06
2022-12-22T11:38:29.466Z,958.11
2022-12-22T11:39:29.460Z,958.06
2022-12-22T11:40:29.543Z,958.03
2022-12-22T11:41:29.606Z,957.99
2022-12-22T11:42:29.579Z,958
2022-12-22T11:43:29.469Z,957.96
2022-12-22T11:44:29.613Z,957.95
2022-12-22T11:45:29.573Z,957.9
2022-12-22T11:46:29.602Z,957.99
2022-12-22T11:48:29.489Z,958.03
2022-12-22T11:50:57.932Z,958.05
2022-12-22T11:51:29.618Z,957.92
2022-12-22T11:52:29.557Z,957.94
2022-12-22T11:53:29.480Z,957.92
2022-12-22T11:54:29.489Z,957.91
2022-12-22T11:55:29.561Z,957.96
2022-12-22T11:56:29.508Z,957.91
2022-12-22T11:57:29.592Z,957.99
2022-12-22T11:58:29.514Z,958.02
2022-12-22T11:59:30.877Z,957.98
2022-12-22T12:00:55.984Z,958.05
2022-12-22T12:01:29.599Z,957.98
2022-12-22T12:02:29.616Z,958.01
2022-12-22T12:03:29.672Z,957.93
2022-12-22T12:04:29.613Z,957.94
2022-12-22T12:05:29.528Z,957.98
2022-12-22T12:06:29.596Z,958.07
2022-12-22T12:07:29.604Z,957.94
2022-12-22T12:08:29.554Z,958.01
2022-12-22T12:09:29.516Z,957.97
2022-12-22T12:10:29.531Z,958.02
2022-12-22T12:11:29.549Z,958.08
2022-12-22T12:12:29.528Z,958.03
2022-12-22T12:14:29.733Z,958.07
2022-12-22T12:15:29.546Z,958.11
2022-12-22T12:16:29.640Z,958.03
2022-12-22T12:17:29.653Z,958.02
2022-12-22T12:18:29.556Z,957.99
2022-12-22T12:19:30.512Z,957.97
2022-12-22T12:20:29.565Z,957.99
2022-12-22T12:21:29.635Z,957.96
2022-12-22T12:22:29.699Z,958.05
2022-12-22T12:23:29.573Z,958.06
2022-12-22T12:24:29.639Z,958.01
2022-12-22T12:25:29.619Z,957.99
2022-12-22T12:26:29.577Z,958.03
2022-12-22T12:27:29.643Z,958.01
2022-12-22T12:28:29.809Z,958.07
2022-12-22T12:29:29.678Z,958.06
2022-12-22T12:30:38.296Z,958.14
2022-12-22T12:31:29.745Z,958.12
2022-12-22T12:33:29.632Z,958.22
2022-12-22T12:34:29.583Z,958.19
2022-12-22T12:35:29.678Z,958.21
2022-12-22T12:36:29.666Z,958.2
2022-12-22T12:37:29.597Z,958.17
2022-12-22T12:39:06.104Z,958.21
2022-12-22T12:39:30.752Z,958.19
2022-12-22T12:40:29.612Z,958.13
2022-12-22T12:41:29.676Z,958.18
2022-12-22T12:43:29.721Z,958.16
2022-12-22T12:44:29.694Z,958.12
2022-12-22T12:45:29.776Z,958.17
2022-12-22T12:46:29.741Z,958.14
2022-12-22T12:47:29.604Z,958.16
2022-12-22T12:48:29.679Z,958.17
2022-12-22T12:50:29.702Z,958.21
2022-12-22T12:51:29.662Z,958.2
2022-12-22T12:52:29.736Z,958.21
2022-12-22T12:53:29.701Z,958.29
2022-12-22T12:54:29.634Z,958.28
2022-12-22T12:55:32.481Z,958.34
2022-12-22T12:58:29.643Z,958.31
2022-12-22T12:59:29.646Z,958.25
2022-12-22T13:01:29.825Z,958.21
2022-12-22T13:02:29.882Z,958.26
2022-12-22T13:05:29.748Z,958.22
2022-12-22T13:06:29.664Z,958.24
2022-12-22T13:07:29.668Z,958.27
2022-12-22T13:08:29.688Z,958.24
2022-12-22T13:09:51.132Z,958.31
2022-12-22T13:10:29.775Z,958.28
2022-12-22T13:12:01.516Z,958.27
2022-12-22T13:12:29.964Z,958.31
2022-12-22T13:13:29.676Z,958.32
2022-12-22T13:14:29.745Z,958.31
2022-12-22T13:15:29.739Z,958.35
2022-12-22T13:16:29.820Z,958.38
2022-12-22T13:17:29.908Z,958.35
2022-12-22T13:18:29.820Z,958.32
2022-12-22T13:19:29.689Z,958.3
2022-12-22T13:20:29.711Z,958.35
2022-12-22T13:21:53.755Z,958.41
2022-12-22T13:22:29.790Z,958.34
2022-12-22T13:23:29.698Z,958.32
2022-12-22T13:24:29.812Z,958.38
2022-12-22T13:25:29.774Z,958.42
2022-12-22T13:26:29.734Z,958.4
2022-12-22T13:27:29.823Z,958.45
2022-12-22T13:28:29.782Z,958.49
2022-12-22T13:29:30.886Z,958.48
2022-12-22T13:31:29.831Z,958.51
2022-12-22T13:32:29.874Z,958.52
2022-12-22T13:34:29.836Z,958.6
2022-12-22T13:35:31.873Z,958.63
2022-12-22T13:36:29.969Z,958.56
2022-12-22T13:37:29.735Z,958.61
2022-12-22T13:38:29.763Z,958.62
2022-12-22T13:39:29.836Z,958.59
2022-12-22T13:40:29.899Z,958.62
2022-12-22T13:41:29.907Z,958.63
2022-12-22T13:42:29.893Z,958.62
2022-12-22T13:43:29.744Z,958.6
2022-12-22T13:44:29.764Z,958.58
2022-12-22T13:45:29.854Z,958.57
2022-12-22T13:46:29.928Z,958.62
2022-12-22T13:47:29.773Z,958.6
2022-12-22T13:48:29.852Z,958.59
2022-12-22T13:49:58.886Z,958.5
2022-12-22T13:50:29.977Z,958.47
2022-12-22T13:51:29.861Z,958.48
2022-12-22T13:52:29.949Z,958.46